sensor_id;sensor_type;location;lat;lon;timestamp;P1;durP1;ratioP1;P2;durP2;ratioP2
21494;SDS011;10909;53.590;10.054;2023-09-07T00:00:19;2.40;;;1.85;;
21494;SDS011;10909;53.590;10.054;2023-09-07T00:02:45;2.35;;;2.15;;
21494;SDS011;10909;53.590;10.054;2023-09-07T00:05:11;3.63;;;2.03;;
21494;SDS011;10909;53.590;10.054;2023-09-07T00:07:38;2.92;;;2.40;;
21494;SDS011;10909;53.590;10.054;2023-09-07T00:10:08;2.60;;;2.00;;
21494;SDS011;10909;53.590;10.054;2023-09-07T00:12:34;2.33;;;1.92;;
21494;SDS011;10909;53.590;10.054;2023-09-07T00:14:59;2.30;;;2.10;;
21494;SDS011;10909;53.590;10.054;2023-09-07T00:17:32;2.40;;;2.20;;
21494;SDS011;10909;53.590;10.054;2023-09-07T00:19:57;2.25;;;2.10;;
21494;SDS011;10909;53.590;10.054;2023-09-07T00:22:23;2.30;;;2.10;;
21494;SDS011;10909;53.590;10.054;2023-09-07T00:24:50;2.30;;;2.10;;
21494;SDS011;10909;53.590;10.054;2023-09-07T00:27:16;2.60;;;2.10;;
21494;SDS011;10909;53.590;10.054;2023-09-07T00:29:41;2.30;;;2.10;;
21494;SDS011;10909;53.590;10.054;2023-09-07T00:32:07;3.03;;;2.50;;
21494;SDS011;10909;53.590;10.054;2023-09-07T00:34:34;2.13;;;1.92;;
21494;SDS011;10909;53.590;10.054;2023-09-07T00:37:00;2.35;;;2.08;;
21494;SDS011;10909;53.590;10.054;2023-09-07T00:39:27;2.08;;;1.88;;
21494;SDS011;10909;53.590;10.054;2023-09-07T00:41:52;2.20;;;2.00;;
21494;SDS011;10909;53.590;10.054;2023-09-07T00:44:18;2.45;;;2.20;;
21494;SDS011;10909;53.590;10.054;2023-09-07T00:46:44;2.17;;;1.98;;
21494;SDS011;10909;53.590;10.054;2023-09-07T00:49:10;2.65;;;2.25;;
21494;SDS011;10909;53.590;10.054;2023-09-07T00:51:36;2.60;;;1.88;;
21494;SDS011;10909;53.590;10.054;2023-09-07T00:54:02;3.10;;;2.20;;
21494;SDS011;10909;53.590;10.054;2023-09-07T00:56:28;2.30;;;2.10;;
21494;SDS011;10909;53.590;10.054;2023-09-07T00:58:54;3.78;;;2.20;;
21494;SDS011;10909;53.590;10.054;2023-09-07T01:01:21;2.70;;;2.28;;
21494;SDS011;10909;53.590;10.054;2023-09-07T01:03:48;2.00;;;1.85;;
21494;SDS011;10909;53.590;10.054;2023-09-07T01:08:49;2.38;;;2.17;;
21494;SDS011;10909;53.590;10.054;2023-09-07T01:11:18;2.08;;;1.88;;
21494;SDS011;10909;53.590;10.054;2023-09-07T01:13:48;2.20;;;2.00;;
21494;SDS011;10909;53.590;10.054;2023-09-07T01:16:14;2.88;;;2.53;;
21494;SDS011;10909;53.590;10.054;2023-09-07T01:18:40;2.40;;;2.20;;
21494;SDS011;10909;53.590;10.054;2023-09-07T01:21:12;2.20;;;2.00;;
21494;SDS011;10909;53.590;10.054;2023-09-07T01:23:40;2.25;;;2.05;;
21494;SDS011;10909;53.590;10.054;2023-09-07T01:26:08;2.63;;;2.42;;
21494;SDS011;10909;53.590;10.054;2023-09-07T01:28:35;2.30;;;2.10;;
21494;SDS011;10909;53.590;10.054;2023-09-07T01:31:03;2.40;;;2.20;;
21494;SDS011;10909;53.590;10.054;2023-09-07T01:33:29;2.40;;;2.20;;
21494;SDS011;10909;53.590;10.054;2023-09-07T01:35:54;2.67;;;2.30;;
21494;SDS011;10909;53.590;10.054;2023-09-07T01:38:20;2.00;;;1.90;;
21494;SDS011;10909;53.590;10.054;2023-09-07T01:40:46;2.97;;;2.30;;
21494;SDS011;10909;53.590;10.054;2023-09-07T01:43:11;1.95;;;1.85;;
21494;SDS011;10909;53.590;10.054;2023-09-07T01:45:37;2.60;;;2.08;;
21494;SDS011;10909;53.590;10.054;2023-09-07T01:48:03;3.78;;;2.25;;
21494;SDS011;10909;53.590;10.054;2023-09-07T01:50:30;2.88;;;1.92;;
21494;SDS011;10909;53.590;10.054;2023-09-07T01:52:56;2.40;;;2.20;;
21494;SDS011;10909;53.590;10.054;2023-09-07T01:55:22;3.08;;;2.20;;
21494;SDS011;10909;53.590;10.054;2023-09-07T01:57:47;2.38;;;2.13;;
21494;SDS011;10909;53.590;10.054;2023-09-07T02:00:13;2.08;;;1.95;;
21494;SDS011;10909;53.590;10.054;2023-09-07T02:02:38;2.60;;;2.30;;
21494;SDS011;10909;53.590;10.054;2023-09-07T02:05:04;2.10;;;2.00;;
21494;SDS011;10909;53.590;10.054;2023-09-07T02:07:30;2.50;;;2.30;;
21494;SDS011;10909;53.590;10.054;2023-09-07T02:09:56;2.35;;;2.10;;
21494;SDS011;10909;53.590;10.054;2023-09-07T02:12:22;2.83;;;2.30;;
21494;SDS011;10909;53.590;10.054;2023-09-07T02:14:47;2.58;;;2.22;;
21494;SDS011;10909;53.590;10.054;2023-09-07T02:17:13;2.50;;;2.30;;
21494;SDS011;10909;53.590;10.054;2023-09-07T02:19:43;5.13;;;3.13;;
21494;SDS011;10909;53.590;10.054;2023-09-07T02:22:09;3.63;;;3.00;;
21494;SDS011;10909;53.590;10.054;2023-09-07T02:24:34;3.10;;;2.13;;
21494;SDS011;10909;53.590;10.054;2023-09-07T02:27:01;2.63;;;2.42;;
21494;SDS011;10909;53.590;10.054;2023-09-07T02:29:28;2.50;;;2.30;;
21494;SDS011;10909;53.590;10.054;2023-09-07T02:31:53;2.50;;;2.30;;
21494;SDS011;10909;53.590;10.054;2023-09-07T02:34:19;2.53;;;2.33;;
21494;SDS011;10909;53.590;10.054;2023-09-07T02:36:45;2.38;;;2.17;;
21494;SDS011;10909;53.590;10.054;2023-09-07T02:39:10;3.75;;;2.30;;
21494;SDS011;10909;53.590;10.054;2023-09-07T02:41:37;2.83;;;2.63;;
21494;SDS011;10909;53.590;10.054;2023-09-07T02:44:03;2.75;;;2.53;;
21494;SDS011;10909;53.590;10.054;2023-09-07T02:46:29;2.25;;;2.13;;
21494;SDS011;10909;53.590;10.054;2023-09-07T02:48:56;2.47;;;2.28;;
21494;SDS011;10909;53.590;10.054;2023-09-07T02:51:23;2.67;;;2.20;;
21494;SDS011;10909;53.590;10.054;2023-09-07T02:53:49;2.50;;;2.30;;
21494;SDS011;10909;53.590;10.054;2023-09-07T02:56:15;2.42;;;2.22;;
21494;SDS011;10909;53.590;10.054;2023-09-07T02:58:41;2.80;;;2.00;;
21494;SDS011;10909;53.590;10.054;2023-09-07T03:01:06;2.17;;;1.98;;
21494;SDS011;10909;53.590;10.054;2023-09-07T03:03:35;3.90;;;2.30;;
21494;SDS011;10909;53.590;10.054;2023-09-07T03:06:09;2.20;;;2.00;;
21494;SDS011;10909;53.590;10.054;2023-09-07T03:08:35;2.40;;;2.20;;
21494;SDS011;10909;53.590;10.054;2023-09-07T03:11:08;2.40;;;2.20;;
21494;SDS011;10909;53.590;10.054;2023-09-07T03:13:34;2.60;;;2.40;;
21494;SDS011;10909;53.590;10.054;2023-09-07T03:16:02;2.47;;;2.28;;
21494;SDS011;10909;53.590;10.054;2023-09-07T03:18:29;3.85;;;2.65;;
21494;SDS011;10909;53.590;10.054;2023-09-07T03:20:55;2.40;;;2.20;;
21494;SDS011;10909;53.590;10.054;2023-09-07T03:23:23;2.72;;;2.53;;
21494;SDS011;10909;53.590;10.054;2023-09-07T03:25:49;3.00;;;2.70;;
21494;SDS011;10909;53.590;10.054;2023-09-07T03:28:14;2.78;;;2.58;;
21494;SDS011;10909;53.590;10.054;2023-09-07T03:30:40;3.92;;;2.55;;
21494;SDS011;10909;53.590;10.054;2023-09-07T03:33:06;3.40;;;3.10;;
21494;SDS011;10909;53.590;10.054;2023-09-07T03:35:32;2.85;;;2.30;;
21494;SDS011;10909;53.590;10.054;2023-09-07T03:37:57;3.47;;;2.33;;
21494;SDS011;10909;53.590;10.054;2023-09-07T03:40:23;2.88;;;2.60;;
21494;SDS011;10909;53.590;10.054;2023-09-07T03:42:49;2.95;;;2.60;;
21494;SDS011;10909;53.590;10.054;2023-09-07T03:45:15;3.55;;;2.83;;
21494;SDS011;10909;53.590;10.054;2023-09-07T03:47:41;3.10;;;2.80;;
21494;SDS011;10909;53.590;10.054;2023-09-07T03:50:07;3.95;;;2.90;;
21494;SDS011;10909;53.590;10.054;2023-09-07T03:52:33;3.00;;;2.67;;
21494;SDS011;10909;53.590;10.054;2023-09-07T03:54:59;3.55;;;3.17;;
21494;SDS011;10909;53.590;10.054;2023-09-07T03:57:26;5.47;;;2.92;;
21494;SDS011;10909;53.590;10.054;2023-09-07T03:59:52;3.20;;;2.88;;
21494;SDS011;10909;53.590;10.054;2023-09-07T04:02:20;2.97;;;2.67;;
21494;SDS011;10909;53.590;10.054;2023-09-07T04:04:50;3.35;;;2.83;;
21494;SDS011;10909;53.590;10.054;2023-09-07T04:07:16;4.20;;;3.42;;
21494;SDS011;10909;53.590;10.054;2023-09-07T04:09:42;3.03;;;2.58;;
21494;SDS011;10909;53.590;10.054;2023-09-07T04:12:09;3.33;;;2.83;;
21494;SDS011;10909;53.590;10.054;2023-09-07T04:14:35;2.97;;;2.58;;
21494;SDS011;10909;53.590;10.054;2023-09-07T04:17:00;3.03;;;2.72;;
21494;SDS011;10909;53.590;10.054;2023-09-07T04:19:27;3.47;;;3.13;;
21494;SDS011;10909;53.590;10.054;2023-09-07T04:21:53;3.15;;;2.85;;
21494;SDS011;10909;53.590;10.054;2023-09-07T04:24:18;4.18;;;2.75;;
21494;SDS011;10909;53.590;10.054;2023-09-07T04:26:44;3.83;;;2.92;;
21494;SDS011;10909;53.590;10.054;2023-09-07T04:29:10;3.00;;;2.75;;
21494;SDS011;10909;53.590;10.054;2023-09-07T04:31:37;4.65;;;3.20;;
21494;SDS011;10909;53.590;10.054;2023-09-07T04:34:03;3.08;;;2.80;;
21494;SDS011;10909;53.590;10.054;2023-09-07T04:36:29;3.03;;;2.72;;
21494;SDS011;10909;53.590;10.054;2023-09-07T04:38:55;3.22;;;2.92;;
21494;SDS011;10909;53.590;10.054;2023-09-07T04:41:20;4.50;;;3.08;;
21494;SDS011;10909;53.590;10.054;2023-09-07T04:43:46;3.03;;;2.75;;
21494;SDS011;10909;53.590;10.054;2023-09-07T04:46:12;3.47;;;3.17;;
21494;SDS011;10909;53.590;10.054;2023-09-07T04:48:40;2.95;;;2.75;;
21494;SDS011;10909;53.590;10.054;2023-09-07T04:51:09;3.55;;;3.25;;
21494;SDS011;10909;53.590;10.054;2023-09-07T04:53:37;3.38;;;3.08;;
21494;SDS011;10909;53.590;10.054;2023-09-07T04:56:04;3.42;;;2.90;;
21494;SDS011;10909;53.590;10.054;2023-09-07T04:58:31;4.35;;;3.28;;
21494;SDS011;10909;53.590;10.054;2023-09-07T05:01:03;3.22;;;2.92;;
21494;SDS011;10909;53.590;10.054;2023-09-07T05:03:31;3.40;;;3.10;;
21494;SDS011;10909;53.590;10.054;2023-09-07T05:05:58;3.58;;;3.28;;
21494;SDS011;10909;53.590;10.054;2023-09-07T05:08:24;3.40;;;3.10;;
21494;SDS011;10909;53.590;10.054;2023-09-07T05:10:54;3.72;;;3.40;;
21494;SDS011;10909;53.590;10.054;2023-09-07T05:13:21;3.95;;;3.55;;
21494;SDS011;10909;53.590;10.054;2023-09-07T05:15:50;3.22;;;2.92;;
21494;SDS011;10909;53.590;10.054;2023-09-07T05:18:17;3.30;;;3.00;;
21494;SDS011;10909;53.590;10.054;2023-09-07T05:20:43;3.00;;;2.80;;
21494;SDS011;10909;53.590;10.054;2023-09-07T05:23:19;3.60;;;3.05;;
21494;SDS011;10909;53.590;10.054;2023-09-07T05:25:46;3.85;;;3.55;;
21494;SDS011;10909;53.590;10.054;2023-09-07T05:28:20;28.48;;;6.38;;
21494;SDS011;10909;53.590;10.054;2023-09-07T05:30:47;30.05;;;7.80;;
21494;SDS011;10909;53.590;10.054;2023-09-07T05:33:14;31.00;;;7.53;;
21494;SDS011;10909;53.590;10.054;2023-09-07T05:35:40;8.38;;;4.00;;
21494;SDS011;10909;53.590;10.054;2023-09-07T05:38:07;64.53;;;10.55;;
21494;SDS011;10909;53.590;10.054;2023-09-07T05:40:33;24.45;;;5.80;;
21494;SDS011;10909;53.590;10.054;2023-09-07T05:43:02;13.15;;;4.78;;
21494;SDS011;10909;53.590;10.054;2023-09-07T05:45:35;22.80;;;6.53;;
21494;SDS011;10909;53.590;10.054;2023-09-07T05:48:02;77.93;;;16.65;;
21494;SDS011;10909;53.590;10.054;2023-09-07T05:50:28;25.48;;;7.70;;
21494;SDS011;10909;53.590;10.054;2023-09-07T05:52:54;69.97;;;13.65;;
21494;SDS011;10909;53.590;10.054;2023-09-07T05:55:20;19.02;;;6.82;;
21494;SDS011;10909;53.590;10.054;2023-09-07T05:57:45;16.02;;;4.90;;
21494;SDS011;10909;53.590;10.054;2023-09-07T06:00:12;4.47;;;3.60;;
21494;SDS011;10909;53.590;10.054;2023-09-07T06:02:38;4.63;;;3.20;;
21494;SDS011;10909;53.590;10.054;2023-09-07T06:05:04;3.55;;;3.25;;
21494;SDS011;10909;53.590;10.054;2023-09-07T06:07:30;5.25;;;3.15;;
21494;SDS011;10909;53.590;10.054;2023-09-07T06:09:56;4.30;;;2.97;;
21494;SDS011;10909;53.590;10.054;2023-09-07T06:12:23;5.95;;;3.33;;
21494;SDS011;10909;53.590;10.054;2023-09-07T06:14:49;3.85;;;3.30;;
21494;SDS011;10909;53.590;10.054;2023-09-07T06:17:15;4.53;;;3.00;;
21494;SDS011;10909;53.590;10.054;2023-09-07T06:19:41;3.22;;;3.00;;
21494;SDS011;10909;53.590;10.054;2023-09-07T06:22:06;3.95;;;3.55;;
21494;SDS011;10909;53.590;10.054;2023-09-07T06:24:32;4.07;;;3.10;;
21494;SDS011;10909;53.590;10.054;2023-09-07T06:26:57;3.80;;;3.03;;
21494;SDS011;10909;53.590;10.054;2023-09-07T06:29:23;4.15;;;3.17;;
21494;SDS011;10909;53.590;10.054;2023-09-07T06:31:49;3.25;;;2.92;;
21494;SDS011;10909;53.590;10.054;2023-09-07T06:34:15;3.08;;;2.78;;
21494;SDS011;10909;53.590;10.054;2023-09-07T06:36:41;12.07;;;3.10;;
21494;SDS011;10909;53.590;10.054;2023-09-07T06:39:06;5.07;;;3.13;;
21494;SDS011;10909;53.590;10.054;2023-09-07T06:41:32;3.30;;;3.00;;
21494;SDS011;10909;53.590;10.054;2023-09-07T06:43:58;3.45;;;3.17;;
21494;SDS011;10909;53.590;10.054;2023-09-07T06:46:24;3.55;;;3.25;;
21494;SDS011;10909;53.590;10.054;2023-09-07T06:48:49;4.05;;;3.30;;
21494;SDS011;10909;53.590;10.054;2023-09-07T06:51:15;3.70;;;3.40;;
21494;SDS011;10909;53.590;10.054;2023-09-07T06:53:40;4.05;;;3.13;;
21494;SDS011;10909;53.590;10.054;2023-09-07T06:56:06;3.85;;;2.92;;
21494;SDS011;10909;53.590;10.054;2023-09-07T06:58:32;3.25;;;2.95;;
21494;SDS011;10909;53.590;10.054;2023-09-07T07:00:59;2.90;;;2.65;;
21494;SDS011;10909;53.590;10.054;2023-09-07T07:03:32;3.30;;;3.00;;
21494;SDS011;10909;53.590;10.054;2023-09-07T07:05:59;3.50;;;3.20;;
21494;SDS011;10909;53.590;10.054;2023-09-07T07:08:25;3.47;;;3.17;;
21494;SDS011;10909;53.590;10.054;2023-09-07T07:10:50;3.58;;;3.28;;
21494;SDS011;10909;53.590;10.054;2023-09-07T07:13:16;3.58;;;3.25;;
21494;SDS011;10909;53.590;10.054;2023-09-07T07:15:42;3.30;;;3.00;;
21494;SDS011;10909;53.590;10.054;2023-09-07T07:18:11;3.33;;;3.03;;
21494;SDS011;10909;53.590;10.054;2023-09-07T07:20:44;5.25;;;3.45;;
21494;SDS011;10909;53.590;10.054;2023-09-07T07:23:12;3.58;;;3.22;;
21494;SDS011;10909;53.590;10.054;2023-09-07T07:25:38;3.38;;;3.00;;
21494;SDS011;10909;53.590;10.054;2023-09-07T07:28:04;3.42;;;3.13;;
21494;SDS011;10909;53.590;10.054;2023-09-07T07:30:31;3.72;;;3.40;;
21494;SDS011;10909;53.590;10.054;2023-09-07T07:33:01;3.33;;;3.03;;
21494;SDS011;10909;53.590;10.054;2023-09-07T07:35:31;3.28;;;2.95;;
21494;SDS011;10909;53.590;10.054;2023-09-07T07:37:57;5.50;;;3.15;;
21494;SDS011;10909;53.590;10.054;2023-09-07T07:40:23;3.40;;;3.10;;
21494;SDS011;10909;53.590;10.054;2023-09-07T07:42:51;3.10;;;2.90;;
21494;SDS011;10909;53.590;10.054;2023-09-07T07:45:18;3.10;;;2.80;;
21494;SDS011;10909;53.590;10.054;2023-09-07T07:47:50;3.30;;;3.03;;
21494;SDS011;10909;53.590;10.054;2023-09-07T07:50:17;2.92;;;2.70;;
21494;SDS011;10909;53.590;10.054;2023-09-07T07:52:43;4.40;;;3.00;;
21494;SDS011;10909;53.590;10.054;2023-09-07T07:55:09;3.00;;;2.80;;
21494;SDS011;10909;53.590;10.054;2023-09-07T07:57:43;4.72;;;3.00;;
21494;SDS011;10909;53.590;10.054;2023-09-07T08:00:08;4.60;;;2.92;;
21494;SDS011;10909;53.590;10.054;2023-09-07T08:02:34;3.13;;;2.85;;
21494;SDS011;10909;53.590;10.054;2023-09-07T08:05:02;3.50;;;3.20;;
21494;SDS011;10909;53.590;10.054;2023-09-07T08:07:30;2.70;;;2.50;;
21494;SDS011;10909;53.590;10.054;2023-09-07T08:10:01;4.68;;;3.20;;
21494;SDS011;10909;53.590;10.054;2023-09-07T08:12:27;4.75;;;2.90;;
21494;SDS011;10909;53.590;10.054;2023-09-07T08:14:52;3.10;;;2.85;;
21494;SDS011;10909;53.590;10.054;2023-09-07T08:17:18;3.58;;;2.83;;
21494;SDS011;10909;53.590;10.054;2023-09-07T08:19:45;3.20;;;2.85;;
21494;SDS011;10909;53.590;10.054;2023-09-07T08:22:13;3.53;;;3.00;;
21494;SDS011;10909;53.590;10.054;2023-09-07T08:24:39;4.13;;;3.20;;
21494;SDS011;10909;53.590;10.054;2023-09-07T08:27:07;3.15;;;2.85;;
21494;SDS011;10909;53.590;10.054;2023-09-07T08:29:39;5.88;;;3.10;;
21494;SDS011;10909;53.590;10.054;2023-09-07T08:32:15;3.05;;;2.85;;
21494;SDS011;10909;53.590;10.054;2023-09-07T08:34:40;2.83;;;2.50;;
21494;SDS011;10909;53.590;10.054;2023-09-07T08:37:07;3.38;;;3.08;;
21494;SDS011;10909;53.590;10.054;2023-09-07T08:39:35;3.22;;;2.92;;
21494;SDS011;10909;53.590;10.054;2023-09-07T08:42:02;3.15;;;2.90;;
21494;SDS011;10909;53.590;10.054;2023-09-07T08:44:29;2.75;;;2.53;;
21494;SDS011;10909;53.590;10.054;2023-09-07T08:46:59;4.95;;;3.15;;
21494;SDS011;10909;53.590;10.054;2023-09-07T08:49:29;3.53;;;2.83;;
21494;SDS011;10909;53.590;10.054;2023-09-07T08:51:57;3.03;;;2.72;;
21494;SDS011;10909;53.590;10.054;2023-09-07T08:54:24;3.28;;;2.97;;
21494;SDS011;10909;53.590;10.054;2023-09-07T08:56:52;3.33;;;2.88;;
21494;SDS011;10909;53.590;10.054;2023-09-07T08:59:18;3.58;;;3.05;;
21494;SDS011;10909;53.590;10.054;2023-09-07T09:01:43;3.33;;;3.10;;
21494;SDS011;10909;53.590;10.054;2023-09-07T09:04:09;2.92;;;2.70;;
21494;SDS011;10909;53.590;10.054;2023-09-07T09:06:35;6.18;;;2.85;;
21494;SDS011;10909;53.590;10.054;2023-09-07T09:09:01;3.40;;;3.13;;
21494;SDS011;10909;53.590;10.054;2023-09-07T09:11:30;2.97;;;2.78;;
21494;SDS011;10909;53.590;10.054;2023-09-07T09:13:56;3.28;;;3.03;;
21494;SDS011;10909;53.590;10.054;2023-09-07T09:16:21;2.75;;;2.55;;
21494;SDS011;10909;53.590;10.054;2023-09-07T09:18:50;3.17;;;2.88;;
21494;SDS011;10909;53.590;10.054;2023-09-07T09:21:21;3.08;;;2.88;;
21494;SDS011;10909;53.590;10.054;2023-09-07T09:23:51;4.00;;;3.20;;
21494;SDS011;10909;53.590;10.054;2023-09-07T09:26:20;3.20;;;2.90;;
21494;SDS011;10909;53.590;10.054;2023-09-07T09:28:55;3.10;;;2.80;;
21494;SDS011;10909;53.590;10.054;2023-09-07T09:31:21;4.43;;;3.25;;
21494;SDS011;10909;53.590;10.054;2023-09-07T09:33:50;4.78;;;2.92;;
21494;SDS011;10909;53.590;10.054;2023-09-07T09:36:16;3.00;;;2.70;;
21494;SDS011;10909;53.590;10.054;2023-09-07T09:38:46;3.33;;;3.03;;
21494;SDS011;10909;53.590;10.054;2023-09-07T09:41:19;2.97;;;2.78;;
21494;SDS011;10909;53.590;10.054;2023-09-07T09:43:46;3.33;;;3.03;;
21494;SDS011;10909;53.590;10.054;2023-09-07T09:46:16;3.30;;;3.00;;
21494;SDS011;10909;53.590;10.054;2023-09-07T09:48:42;4.13;;;2.90;;
21494;SDS011;10909;53.590;10.054;2023-09-07T09:51:09;3.30;;;3.00;;
21494;SDS011;10909;53.590;10.054;2023-09-07T09:53:36;3.50;;;3.17;;
21494;SDS011;10909;53.590;10.054;2023-09-07T09:56:02;2.95;;;2.75;;
21494;SDS011;10909;53.590;10.054;2023-09-07T09:58:28;2.75;;;2.55;;
21494;SDS011;10909;53.590;10.054;2023-09-07T10:00:55;3.60;;;2.63;;
21494;SDS011;10909;53.590;10.054;2023-09-07T10:03:28;3.38;;;2.92;;
21494;SDS011;10909;53.590;10.054;2023-09-07T10:06:10;3.08;;;2.78;;
21494;SDS011;10909;53.590;10.054;2023-09-07T10:08:36;2.97;;;2.72;;
21494;SDS011;10909;53.590;10.054;2023-09-07T10:11:11;2.78;;;2.58;;
21494;SDS011;10909;53.590;10.054;2023-09-07T10:13:37;3.38;;;3.08;;
21494;SDS011;10909;53.590;10.054;2023-09-07T10:16:03;3.20;;;2.90;;
21494;SDS011;10909;53.590;10.054;2023-09-07T10:18:36;2.72;;;2.50;;
21494;SDS011;10909;53.590;10.054;2023-09-07T10:21:10;3.10;;;2.80;;
21494;SDS011;10909;53.590;10.054;2023-09-07T10:23:39;2.67;;;2.45;;
21494;SDS011;10909;53.590;10.054;2023-09-07T10:26:09;3.05;;;2.67;;
21494;SDS011;10909;53.590;10.054;2023-09-07T10:32:08;2.55;;;2.35;;
21494;SDS011;10909;53.590;10.054;2023-09-07T10:34:49;2.60;;;2.40;;
21494;SDS011;10909;53.590;10.054;2023-09-07T10:37:18;2.90;;;2.70;;
21494;SDS011;10909;53.590;10.054;2023-09-07T10:39:47;2.90;;;2.60;;
21494;SDS011;10909;53.590;10.054;2023-09-07T10:42:24;2.72;;;2.47;;
21494;SDS011;10909;53.590;10.054;2023-09-07T10:44:53;2.80;;;2.58;;
21494;SDS011;10909;53.590;10.054;2023-09-07T10:47:19;2.65;;;2.45;;
21494;SDS011;10909;53.590;10.054;2023-09-07T10:49:45;3.05;;;2.35;;
21494;SDS011;10909;53.590;10.054;2023-09-07T10:52:16;3.97;;;2.80;;
21494;SDS011;10909;53.590;10.054;2023-09-07T10:54:41;3.92;;;2.60;;
21494;SDS011;10909;53.590;10.054;2023-09-07T10:57:10;3.17;;;2.88;;
21494;SDS011;10909;53.590;10.054;2023-09-07T10:59:46;2.97;;;2.70;;
21494;SDS011;10909;53.590;10.054;2023-09-07T11:02:13;2.70;;;2.50;;
21494;SDS011;10909;53.590;10.054;2023-09-07T11:04:44;2.75;;;2.55;;
21494;SDS011;10909;53.590;10.054;2023-09-07T11:07:10;3.17;;;2.97;;
21494;SDS011;10909;53.590;10.054;2023-09-07T11:09:43;3.00;;;2.80;;
21494;SDS011;10909;53.590;10.054;2023-09-07T11:12:12;3.65;;;2.47;;
21494;SDS011;10909;53.590;10.054;2023-09-07T11:14:40;2.67;;;2.47;;
21494;SDS011;10909;53.590;10.054;2023-09-07T11:17:08;2.67;;;2.47;;
21494;SDS011;10909;53.590;10.054;2023-09-07T11:20:02;2.50;;;2.30;;
21494;SDS011;10909;53.590;10.054;2023-09-07T11:22:35;3.08;;;2.45;;
21494;SDS011;10909;53.590;10.054;2023-09-07T11:25:04;3.13;;;2.83;;
21494;SDS011;10909;53.590;10.054;2023-09-07T11:27:33;2.78;;;2.40;;
21494;SDS011;10909;53.590;10.054;2023-09-07T11:30:10;3.88;;;3.10;;
21494;SDS011;10909;53.590;10.054;2023-09-07T11:32:41;2.25;;;2.05;;
21494;SDS011;10909;53.590;10.054;2023-09-07T11:35:08;4.70;;;2.65;;
21494;SDS011;10909;53.590;10.054;2023-09-07T11:37:34;2.80;;;2.60;;
21494;SDS011;10909;53.590;10.054;2023-09-07T11:40:05;2.78;;;2.30;;
21494;SDS011;10909;53.590;10.054;2023-09-07T11:42:37;3.00;;;2.42;;
21494;SDS011;10909;53.590;10.054;2023-09-07T11:45:06;2.17;;;2.05;;
21494;SDS011;10909;53.590;10.054;2023-09-07T11:47:38;2.53;;;2.35;;
21494;SDS011;10909;53.590;10.054;2023-09-07T11:50:29;3.08;;;2.50;;
21494;SDS011;10909;53.590;10.054;2023-09-07T11:53:12;2.63;;;2.40;;
21494;SDS011;10909;53.590;10.054;2023-09-07T11:55:38;2.80;;;2.45;;
21494;SDS011;10909;53.590;10.054;2023-09-07T11:58:08;3.33;;;2.67;;
21494;SDS011;10909;53.590;10.054;2023-09-07T12:03:20;2.28;;;2.08;;
21494;SDS011;10909;53.590;10.054;2023-09-07T12:05:46;2.20;;;2.05;;
21494;SDS011;10909;53.590;10.054;2023-09-07T12:08:12;2.30;;;2.10;;
21494;SDS011;10909;53.590;10.054;2023-09-07T12:10:40;2.65;;;2.45;;
21494;SDS011;10909;53.590;10.054;2023-09-07T12:13:05;2.42;;;2.22;;
21494;SDS011;10909;53.590;10.054;2023-09-07T12:15:31;5.28;;;2.70;;
21494;SDS011;10909;53.590;10.054;2023-09-07T12:17:56;3.17;;;2.30;;
21494;SDS011;10909;53.590;10.054;2023-09-07T12:20:22;2.58;;;2.38;;
21494;SDS011;10909;53.590;10.054;2023-09-07T12:22:48;3.33;;;2.60;;
21494;SDS011;10909;53.590;10.054;2023-09-07T12:25:14;3.10;;;2.90;;
21494;SDS011;10909;53.590;10.054;2023-09-07T12:27:40;2.92;;;2.72;;
21494;SDS011;10909;53.590;10.054;2023-09-07T12:30:08;2.92;;;2.40;;
21494;SDS011;10909;53.590;10.054;2023-09-07T12:32:37;3.20;;;2.90;;
21494;SDS011;10909;53.590;10.054;2023-09-07T12:35:05;6.25;;;3.42;;
21494;SDS011;10909;53.590;10.054;2023-09-07T12:40:51;2.80;;;2.60;;
21494;SDS011;10909;53.590;10.054;2023-09-07T12:44:01;2.40;;;2.22;;
21494;SDS011;10909;53.590;10.054;2023-09-07T12:46:30;2.65;;;2.45;;
21494;SDS011;10909;53.590;10.054;2023-09-07T12:49:25;2.70;;;2.50;;
21494;SDS011;10909;53.590;10.054;2023-09-07T12:52:03;2.60;;;2.40;;
21494;SDS011;10909;53.590;10.054;2023-09-07T12:55:30;2.10;;;1.90;;
21494;SDS011;10909;53.590;10.054;2023-09-07T12:58:01;2.30;;;2.10;;
21494;SDS011;10909;53.590;10.054;2023-09-07T13:00:51;2.80;;;2.60;;
21494;SDS011;10909;53.590;10.054;2023-09-07T13:03:20;2.60;;;2.40;;
21494;SDS011;10909;53.590;10.054;2023-09-07T13:05:46;2.50;;;2.30;;
21494;SDS011;10909;53.590;10.054;2023-09-07T13:08:15;2.65;;;2.38;;
21494;SDS011;10909;53.590;10.054;2023-09-07T13:10:43;2.65;;;2.45;;
21494;SDS011;10909;53.590;10.054;2023-09-07T13:13:09;2.25;;;2.08;;
21494;SDS011;10909;53.590;10.054;2023-09-07T13:15:43;3.05;;;2.50;;
21494;SDS011;10909;53.590;10.054;2023-09-07T13:18:14;3.08;;;2.20;;
21494;SDS011;10909;53.590;10.054;2023-09-07T13:20:52;2.08;;;1.98;;
21494;SDS011;10909;53.590;10.054;2023-09-07T13:23:24;2.22;;;2.03;;
21494;SDS011;10909;53.590;10.054;2023-09-07T13:25:56;2.58;;;2.17;;
21494;SDS011;10909;53.590;10.054;2023-09-07T13:28:26;2.78;;;2.58;;
21494;SDS011;10909;53.590;10.054;2023-09-07T13:30:51;2.85;;;2.63;;
21494;SDS011;10909;53.590;10.054;2023-09-07T13:33:22;2.42;;;2.22;;
21494;SDS011;10909;53.590;10.054;2023-09-07T13:35:50;6.97;;;2.30;;
21494;SDS011;10909;53.590;10.054;2023-09-07T13:38:16;2.13;;;1.92;;
21494;SDS011;10909;53.590;10.054;2023-09-07T13:40:42;2.85;;;2.60;;
21494;SDS011;10909;53.590;10.054;2023-09-07T13:43:12;3.40;;;3.08;;
21494;SDS011;10909;53.590;10.054;2023-09-07T13:45:37;4.10;;;3.80;;
21494;SDS011;10909;53.590;10.054;2023-09-07T13:48:03;6.07;;;4.25;;
21494;SDS011;10909;53.590;10.054;2023-09-07T13:50:29;4.30;;;3.80;;
21494;SDS011;10909;53.590;10.054;2023-09-07T13:52:55;2.80;;;2.60;;
21494;SDS011;10909;53.590;10.054;2023-09-07T13:55:21;2.60;;;2.40;;
21494;SDS011;10909;53.590;10.054;2023-09-07T13:57:48;2.47;;;2.28;;
21494;SDS011;10909;53.590;10.054;2023-09-07T14:00:14;2.92;;;2.33;;
21494;SDS011;10909;53.590;10.054;2023-09-07T14:02:39;2.42;;;2.22;;
21494;SDS011;10909;53.590;10.054;2023-09-07T14:05:05;2.50;;;2.30;;
21494;SDS011;10909;53.590;10.054;2023-09-07T14:07:31;2.40;;;2.20;;
21494;SDS011;10909;53.590;10.054;2023-09-07T14:09:57;2.70;;;2.50;;
21494;SDS011;10909;53.590;10.054;2023-09-07T14:12:22;2.40;;;2.20;;
21494;SDS011;10909;53.590;10.054;2023-09-07T14:14:49;3.05;;;2.10;;
21494;SDS011;10909;53.590;10.054;2023-09-07T14:17:15;2.50;;;2.30;;
21494;SDS011;10909;53.590;10.054;2023-09-07T14:19:41;2.30;;;2.10;;
21494;SDS011;10909;53.590;10.054;2023-09-07T14:22:06;2.33;;;2.13;;
21494;SDS011;10909;53.590;10.054;2023-09-07T14:24:33;2.55;;;2.30;;
21494;SDS011;10909;53.590;10.054;2023-09-07T14:27:02;4.15;;;2.20;;
21494;SDS011;10909;53.590;10.054;2023-09-07T14:29:28;2.70;;;2.50;;
21494;SDS011;10909;53.590;10.054;2023-09-07T14:31:54;2.38;;;2.17;;
21494;SDS011;10909;53.590;10.054;2023-09-07T14:34:19;2.40;;;2.20;;
21494;SDS011;10909;53.590;10.054;2023-09-07T14:36:45;2.60;;;2.40;;
21494;SDS011;10909;53.590;10.054;2023-09-07T14:39:11;2.67;;;2.30;;
21494;SDS011;10909;53.590;10.054;2023-09-07T14:41:37;2.60;;;2.30;;
21494;SDS011;10909;53.590;10.054;2023-09-07T14:44:05;2.50;;;2.30;;
21494;SDS011;10909;53.590;10.054;2023-09-07T14:46:30;2.55;;;2.35;;
21494;SDS011;10909;53.590;10.054;2023-09-07T14:48:56;3.70;;;2.42;;